createdAt,value
2023-02-13T00:00:37.098Z,100.00
2023-02-13T00:03:04.911Z,100.00
2023-02-13T00:05:33.035Z,100.00
2023-02-13T00:08:03.134Z,100.00
2023-02-13T00:10:30.972Z,100.00
2023-02-13T00:12:58.624Z,100.00
2023-02-13T00:15:26.309Z,100.00
2023-02-13T00:17:53.895Z,100.00
2023-02-13T00:20:21.639Z,100.00
2023-02-13T00:22:49.378Z,100.00
2023-02-13T00:25:18.610Z,100.00
2023-02-13T00:27:46.012Z,100.00
2023-02-13T00:30:14.805Z,100.00
2023-02-13T00:32:42.360Z,100.00
2023-02-13T00:35:10.072Z,100.00
2023-02-13T00:37:37.668Z,100.00
2023-02-13T00:40:05.716Z,100.00
2023-02-13T00:42:35.260Z,100.00
2023-02-13T00:45:03.882Z,100.00
2023-02-13T00:47:31.501Z,100.00
2023-02-13T00:49:59.179Z,100.00
2023-02-13T00:52:26.834Z,100.00
2023-02-13T00:54:54.377Z,100.00
2023-02-13T00:57:21.855Z,100.00
2023-02-13T00:59:51.867Z,100.00
2023-02-13T01:04:54.912Z,100.00
2023-02-13T01:07:22.590Z,100.00
2023-02-13T01:09:50.326Z,100.00
2023-02-13T01:12:17.977Z,100.00
2023-02-13T01:14:45.733Z,100.00
2023-02-13T01:17:14.979Z,100.00
2023-02-13T01:19:42.792Z,100.00
2023-02-13T01:22:10.744Z,100.00
2023-02-13T01:24:38.575Z,100.00
2023-02-13T01:29:47.879Z,100.00
2023-02-13T01:32:17.274Z,100.00
2023-02-13T01:34:45.059Z,100.00
2023-02-13T01:37:12.721Z,100.00
2023-02-13T01:39:40.513Z,100.00
2023-02-13T01:55:34.109Z,100.00
2023-02-13T01:58:06.152Z,100.00
2023-02-13T02:00:33.783Z,100.00
2023-02-13T02:03:15.291Z,100.00
2023-02-13T02:05:43.512Z,100.00
2023-02-13T02:08:14.385Z,100.00
2023-02-13T02:10:43.721Z,100.00
2023-02-13T02:13:13.062Z,100.00
2023-02-13T02:15:42.045Z,100.00
2023-02-13T02:18:15.500Z,100.00
2023-02-13T02:21:04.087Z,100.00
2023-02-13T02:24:14.550Z,100.00
2023-02-13T02:27:18.128Z,100.00
2023-02-13T02:30:18.875Z,99.58
2023-02-13T02:32:58.893Z,100.00
2023-02-13T02:35:37.180Z,100.00
2023-02-13T02:38:18.966Z,100.00
2023-02-13T02:40:58.997Z,100.00
2023-02-13T02:43:39.747Z,100.00
2023-02-13T02:46:14.916Z,100.00
2023-02-13T02:49:04.028Z,100.00
2023-02-13T02:51:39.077Z,99.89
2023-02-13T02:54:25.904Z,99.96
2023-02-13T02:56:53.960Z,100.00
2023-02-13T02:59:39.840Z,100.00
2023-02-13T03:02:27.590Z,100.00
2023-02-13T03:05:27.135Z,100.00
2023-02-13T03:07:55.532Z,100.00
2023-02-13T03:10:46.773Z,100.00
2023-02-13T03:13:24.521Z,100.00
2023-02-13T03:16:12.041Z,100.00
2023-02-13T03:18:59.666Z,100.00
2023-02-13T03:21:51.982Z,100.00
2023-02-13T03:24:26.725Z,100.00
2023-02-13T03:26:59.565Z,100.00
2023-02-13T03:29:56.252Z,100.00
2023-02-13T03:32:29.995Z,100.00
2023-02-13T03:35:20.649Z,99.93
2023-02-13T03:37:57.404Z,100.00
2023-02-13T03:40:30.148Z,99.96
2023-02-13T03:43:04.635Z,99.75
2023-02-13T03:45:51.937Z,99.31
2023-02-13T03:48:39.689Z,99.48
2023-02-13T03:51:08.649Z,99.76
2023-02-13T03:53:39.881Z,99.47
2023-02-13T03:56:26.118Z,99.69
2023-02-13T03:59:17.306Z,99.48
2023-02-13T04:01:49.937Z,99.00
2023-02-13T04:04:25.395Z,99.52
2023-02-13T04:06:59.880Z,99.33
2023-02-13T04:09:30.427Z,99.53
2023-02-13T04:12:04.611Z,99.40
2023-02-13T04:14:37.545Z,99.26
2023-02-13T04:17:06.739Z,99.11
2023-02-13T04:19:34.610Z,99.33
2023-02-13T04:22:03.056Z,99.46
2023-02-13T04:24:31.983Z,98.96
2023-02-13T04:26:59.622Z,98.86
2023-02-13T04:29:27.848Z,98.82
2023-02-13T04:31:55.670Z,99.16
2023-02-13T04:34:25.550Z,98.97
2023-02-13T04:36:53.312Z,98.90
2023-02-13T04:39:20.950Z,99.11
2023-02-13T04:41:50.304Z,99.10
2023-02-13T04:44:17.935Z,99.15
2023-02-13T04:46:45.620Z,98.97
2023-02-13T04:49:13.254Z,98.78
2023-02-13T04:51:42.565Z,98.59
2023-02-13T04:54:11.873Z,98.94
2023-02-13T04:56:39.398Z,98.82
2023-02-13T04:59:08.391Z,98.58
2023-02-13T05:01:36.129Z,98.82
2023-02-13T05:04:03.817Z,98.90
2023-02-13T05:06:31.874Z,98.47
2023-02-13T05:08:59.616Z,98.89
2023-02-13T05:11:28.088Z,99.09
2023-02-13T05:13:55.960Z,99.14
2023-02-13T05:16:25.926Z,98.88
2023-02-13T05:18:55.792Z,98.92
2023-02-13T05:21:43.394Z,98.80
2023-02-13T05:24:11.045Z,98.99
2023-02-13T05:26:38.747Z,98.63
2023-02-13T05:29:24.964Z,98.79
2023-02-13T05:31:59.703Z,98.87
2023-02-13T05:34:28.923Z,98.81
2023-02-13T05:36:57.009Z,98.95
2023-02-13T05:39:24.563Z,98.78
2023-02-13T05:41:52.183Z,98.46
2023-02-13T05:44:19.714Z,98.88
2023-02-13T05:46:49.779Z,98.61
2023-02-13T05:49:21.344Z,98.47
2023-02-13T05:51:48.907Z,98.64
2023-02-13T05:54:16.877Z,98.64
2023-02-13T05:56:45.087Z,98.80
2023-02-13T05:59:12.695Z,98.88
2023-02-13T06:01:40.511Z,98.92
2023-02-13T06:04:08.186Z,98.47
2023-02-13T06:06:37.040Z,98.59
2023-02-13T06:09:04.766Z,98.79
2023-02-13T06:11:32.416Z,98.48
2023-02-13T06:13:59.772Z,98.72
2023-02-13T06:16:27.362Z,98.47
2023-02-13T06:18:54.804Z,98.29
2023-02-13T06:21:22.661Z,98.48
2023-02-13T06:23:51.625Z,98.67
2023-02-13T06:26:19.082Z,98.96
2023-02-13T06:28:46.713Z,98.49
2023-02-13T06:31:14.234Z,98.37
2023-02-13T06:33:41.760Z,98.60
2023-02-13T06:36:09.384Z,98.76
2023-02-13T06:38:36.882Z,98.75
2023-02-13T06:41:06.942Z,98.42
2023-02-13T06:43:34.359Z,98.48
2023-02-13T06:46:05.852Z,98.42
2023-02-13T06:48:33.383Z,98.46
2023-02-13T06:51:04.475Z,98.49
2023-02-13T06:53:32.037Z,98.40
2023-02-13T06:55:59.585Z,98.44
2023-02-13T06:58:28.457Z,98.41
2023-02-13T07:00:56.468Z,98.29
2023-02-13T07:03:24.385Z,98.47
2023-02-13T07:05:52.765Z,98.18
2023-02-13T07:08:20.919Z,98.20
2023-02-13T07:10:48.412Z,98.15
2023-02-13T07:13:16.642Z,98.23
2023-02-13T07:15:45.970Z,98.44
2023-02-13T07:18:13.620Z,97.84
2023-02-13T07:20:41.112Z,98.45
2023-02-13T07:23:08.657Z,98.58
2023-02-13T07:25:36.349Z,98.27
2023-02-13T07:28:05.025Z,98.45
2023-02-13T07:30:34.292Z,98.37
2023-02-13T07:33:04.051Z,98.46
2023-02-13T07:35:32.067Z,98.34
2023-02-13T07:38:00.460Z,98.29
2023-02-13T07:40:28.290Z,98.16
2023-02-13T07:42:56.157Z,98.31
2023-02-13T07:45:23.884Z,98.20
2023-02-13T07:47:51.396Z,98.27
2023-02-13T07:50:21.202Z,98.16
2023-02-13T07:52:54.729Z,98.10
2023-02-13T07:55:22.629Z,98.26
2023-02-13T07:57:50.627Z,98.19
2023-02-13T08:00:19.453Z,98.25
2023-02-13T08:02:47.340Z,98.49
2023-02-13T08:05:15.071Z,98.38
2023-02-13T08:07:44.136Z,98.64
2023-02-13T08:10:31.764Z,98.45
2023-02-13T08:12:59.437Z,98.23
2023-02-13T08:15:27.423Z,98.10
2023-02-13T08:17:54.944Z,98.25
2023-02-13T08:20:22.948Z,98.08
2023-02-13T08:22:52.131Z,98.31
2023-02-13T08:25:19.890Z,98.02
2023-02-13T08:27:47.532Z,97.95
2023-02-13T08:30:16.161Z,98.40
2023-02-13T08:32:53.934Z,98.21
2023-02-13T08:35:22.957Z,98.32
2023-02-13T08:37:51.976Z,98.13
2023-02-13T08:40:19.726Z,98.36
2023-02-13T08:42:47.275Z,98.50
2023-02-13T08:45:14.721Z,98.88
2023-02-13T08:47:42.301Z,98.86
2023-02-13T08:50:10.549Z,99.00
2023-02-13T08:52:38.350Z,98.91
2023-02-13T08:55:07.547Z,98.80
2023-02-13T08:57:35.550Z,98.75
2023-02-13T09:00:03.703Z,98.70
2023-02-13T09:02:31.351Z,99.19
2023-02-13T09:04:59.031Z,99.23
2023-02-13T09:07:26.831Z,99.13
2023-02-13T09:09:54.439Z,98.75
2023-02-13T09:12:24.153Z,99.11
2023-02-13T09:14:52.456Z,98.73
2023-02-13T09:17:20.050Z,98.63
2023-02-13T09:19:47.724Z,98.91
2023-02-13T09:22:17.397Z,99.17
2023-02-13T09:24:45.024Z,99.11
2023-02-13T09:27:12.615Z,98.91
2023-02-13T09:29:41.719Z,99.10
2023-02-13T09:32:09.394Z,99.33
2023-02-13T09:34:36.937Z,99.23
2023-02-13T09:37:04.585Z,99.27
2023-02-13T09:39:32.365Z,98.97
2023-02-13T09:42:00.228Z,98.83
2023-02-13T09:44:38.968Z,99.18
2023-02-13T09:47:15.571Z,98.80
2023-02-13T09:49:45.960Z,98.91
2023-02-13T09:52:13.580Z,98.57
2023-02-13T09:54:41.063Z,98.87
2023-02-13T09:57:16.708Z,98.77
2023-02-13T09:59:57.181Z,99.17
2023-02-13T10:02:38.230Z,98.76
2023-02-13T10:05:15.093Z,99.58
2023-02-13T10:07:48.122Z,100.00
2023-02-13T10:10:22.103Z,99.98
2023-02-13T10:13:16.567Z,99.55
2023-02-13T10:15:49.541Z,99.53
2023-02-13T10:18:22.463Z,99.52
2023-02-13T10:20:53.172Z,99.37
2023-02-13T10:23:25.151Z,99.31
2023-02-13T10:25:56.295Z,99.11
2023-02-13T10:28:31.407Z,98.80
2023-02-13T10:31:02.319Z,98.35
2023-02-13T10:33:33.393Z,98.13
2023-02-13T10:36:03.539Z,98.14
2023-02-13T10:38:32.994Z,98.31
2023-02-13T10:41:19.914Z,98.23
2023-02-13T10:44:02.984Z,97.85
2023-02-13T10:46:37.568Z,97.77
2023-02-13T10:49:38.727Z,98.35
2023-02-13T10:52:13.206Z,98.08
2023-02-13T10:55:02.532Z,98.04
2023-02-13T10:57:40.408Z,97.65
2023-02-13T11:00:13.633Z,98.15
2023-02-13T11:02:41.339Z,98.06
2023-02-13T11:05:16.971Z,98.34
2023-02-13T11:07:46.760Z,98.02
2023-02-13T11:10:19.530Z,97.94
2023-02-13T11:12:47.238Z,97.79
2023-02-13T11:15:25.656Z,98.79
2023-02-13T11:17:55.000Z,98.43
2023-02-13T11:20:38.512Z,97.40
2023-02-13T11:23:20.224Z,96.92
2023-02-13T11:25:57.325Z,96.60
2023-02-13T11:28:25.358Z,97.02
2023-02-13T11:30:53.043Z,97.36
2023-02-13T11:33:25.320Z,96.80
2023-02-13T11:36:06.636Z,96.35
2023-02-13T11:38:34.465Z,96.80
2023-02-13T11:41:07.328Z,96.93
2023-02-13T11:43:36.880Z,96.67
2023-02-13T11:46:07.092Z,96.52
2023-02-13T11:48:35.282Z,96.56
2023-02-13T11:51:04.826Z,96.15
2023-02-13T11:53:34.088Z,96.38
2023-02-13T11:56:08.650Z,96.56
2023-02-13T11:58:36.575Z,96.50
2023-02-13T12:01:28.368Z,96.40
2023-02-13T12:04:04.393Z,96.56
2023-02-13T12:06:39.899Z,96.62
2023-02-13T12:09:13.890Z,96.86
2023-02-13T12:11:43.826Z,97.21
2023-02-13T12:14:14.090Z,97.01
2023-02-13T12:16:43.774Z,96.83
2023-02-13T12:19:16.261Z,96.94
2023-02-13T12:21:58.310Z,97.69
2023-02-13T12:24:37.236Z,97.83
2023-02-13T12:27:10.584Z,97.74
2023-02-13T12:30:04.779Z,97.43
2023-02-13T12:32:41.100Z,97.46
2023-02-13T12:35:29.526Z,98.36
2023-02-13T12:38:03.311Z,98.13
2023-02-13T12:40:40.193Z,98.18
2023-02-13T12:43:25.452Z,98.49
2023-02-13T12:45:54.976Z,98.53
2023-02-13T12:48:31.365Z,99.10
2023-02-13T12:51:08.408Z,98.72
2023-02-13T12:53:45.217Z,98.18
2023-02-13T12:56:23.809Z,99.33
2023-02-13T12:59:00.999Z,99.07
2023-02-13T13:01:45.041Z,98.68
2023-02-13T13:04:18.915Z,98.81
2023-02-13T13:06:59.404Z,98.88
2023-02-13T13:09:36.999Z,98.02
2023-02-13T13:12:31.464Z,98.28
2023-02-13T13:15:05.510Z,98.61
2023-02-13T13:17:43.897Z,98.53
2023-02-13T13:20:29.859Z,97.90
2023-02-13T13:23:01.058Z,98.31
2023-02-13T13:25:33.315Z,98.96
2023-02-13T13:28:04.628Z,98.82
2023-02-13T13:30:35.739Z,99.25
2023-02-13T13:33:06.984Z,98.96
2023-02-13T13:35:35.844Z,98.90
2023-02-13T13:38:10.067Z,98.87
2023-02-13T13:40:44.417Z,98.52
2023-02-13T13:43:21.471Z,99.15
2023-02-13T13:45:53.535Z,99.10
2023-02-13T13:48:57.092Z,99.29
2023-02-13T13:51:24.866Z,99.42
2023-02-13T13:54:36.503Z,99.61
2023-02-13T13:57:13.081Z,98.89
2023-02-13T14:00:01.640Z,99.51
2023-02-13T14:02:45.583Z,99.38
2023-02-13T14:05:26.460Z,99.38
2023-02-13T14:07:56.475Z,99.64
2023-02-13T14:10:58.112Z,99.82
2023-02-13T14:13:35.885Z,99.07
2023-02-13T14:16:04.778Z,99.27
2023-02-13T14:18:32.684Z,98.87
2023-02-13T14:21:01.456Z,98.33
2023-02-13T14:23:36.596Z,98.24
2023-02-13T14:26:29.912Z,98.30
2023-02-13T14:29:23.275Z,98.51
2023-02-13T14:32:01.060Z,99.10
2023-02-13T14:34:32.775Z,97.96
2023-02-13T14:37:08.527Z,98.60
2023-02-13T14:39:37.688Z,98.25
2023-02-13T14:42:07.015Z,98.19
2023-02-13T14:44:40.476Z,99.00
2023-02-13T14:47:18.858Z,99.02
2023-02-13T14:49:47.042Z,98.15
2023-02-13T14:52:18.570Z,98.22
2023-02-13T14:54:48.994Z,98.07
2023-02-13T14:57:18.865Z,99.00
2023-02-13T14:59:49.532Z,98.65
2023-02-13T15:02:21.095Z,98.82
2023-02-13T15:04:50.652Z,98.44
2023-02-13T15:07:23.371Z,98.33
2023-02-13T15:09:53.129Z,98.01
2023-02-13T15:12:29.287Z,98.16
2023-02-13T15:14:58.589Z,97.82
2023-02-13T15:17:29.362Z,97.88
2023-02-13T15:20:01.048Z,98.31
2023-02-13T15:22:32.568Z,98.49
2023-02-13T15:25:00.580Z,98.15
2023-02-13T15:27:29.668Z,98.33
2023-02-13T15:30:03.713Z,98.75
2023-02-13T15:32:34.124Z,97.88
2023-02-13T15:35:01.782Z,98.37
2023-02-13T15:37:31.560Z,98.27
2023-02-13T15:40:16.003Z,97.96
2023-02-13T15:42:43.588Z,97.81
2023-02-13T15:45:17.141Z,97.81
2023-02-13T15:47:45.406Z,97.14
2023-02-13T15:50:18.032Z,96.97
2023-02-13T15:52:45.638Z,97.09
2023-02-13T15:55:19.798Z,97.15
2023-02-13T15:57:47.444Z,96.85
2023-02-13T16:00:21.652Z,96.91
2023-02-13T16:02:49.891Z,96.54
2023-02-13T16:05:26.582Z,97.20
2023-02-13T16:08:20.115Z,97.17
2023-02-13T16:10:47.619Z,96.63
2023-02-13T16:13:18.160Z,96.52
2023-02-13T16:15:47.066Z,96.61
2023-02-13T16:18:20.045Z,96.42
2023-02-13T16:20:47.644Z,96.00
2023-02-13T16:23:18.179Z,95.78
2023-02-13T16:25:47.083Z,96.13
2023-02-13T16:28:18.915Z,95.75
2023-02-13T16:30:52.576Z,95.57
2023-02-13T16:33:28.036Z,95.18
2023-02-13T16:35:56.875Z,95.13
2023-02-13T16:38:28.205Z,94.72
2023-02-13T16:40:56.665Z,94.71
2023-02-13T16:43:42.374Z,94.44
2023-02-13T16:46:25.748Z,94.70
2023-02-13T16:49:14.747Z,94.67
2023-02-13T16:51:44.140Z,95.15
2023-02-13T16:54:20.940Z,94.17
2023-02-13T16:56:49.999Z,94.15
2023-02-13T16:59:33.419Z,94.06
2023-02-13T17:02:14.533Z,93.87
2023-02-13T17:04:44.322Z,94.47
2023-02-13T17:07:19.780Z,94.27
2023-02-13T17:09:53.720Z,94.58
2023-02-13T17:12:21.930Z,94.39
2023-02-13T17:14:49.659Z,94.54
2023-02-13T17:17:20.839Z,94.52
2023-02-13T17:19:49.868Z,94.38
2023-02-13T17:22:22.645Z,94.36
2023-02-13T17:24:50.209Z,95.09
2023-02-13T17:27:17.776Z,95.33
2023-02-13T17:29:45.282Z,94.71
2023-02-13T17:32:19.461Z,94.96
2023-02-13T17:34:47.202Z,95.18
2023-02-13T17:37:19.763Z,94.62
2023-02-13T17:39:48.332Z,93.96
2023-02-13T17:42:21.622Z,93.87
2023-02-13T17:44:49.187Z,94.39
2023-02-13T17:47:19.377Z,94.25
2023-02-13T17:49:47.785Z,94.10
2023-02-13T17:52:16.961Z,94.36
2023-02-13T17:54:45.185Z,94.18
2023-02-13T17:57:13.866Z,94.17
2023-02-13T17:59:41.803Z,93.52
2023-02-13T18:02:18.684Z,93.65
2023-02-13T18:04:47.498Z,93.80
2023-02-13T18:07:17.034Z,93.72
2023-02-13T18:09:47.824Z,93.67
2023-02-13T18:12:18.726Z,93.61
2023-02-13T18:14:46.600Z,94.00
2023-02-13T18:17:14.876Z,93.79
2023-02-13T18:19:44.242Z,94.31
2023-02-13T18:22:12.752Z,94.42
2023-02-13T18:24:42.461Z,94.42
2023-02-13T18:27:11.087Z,93.81
2023-02-13T18:29:39.074Z,93.66
2023-02-13T18:32:10.235Z,94.08
2023-02-13T18:34:39.192Z,94.08
2023-02-13T18:37:08.721Z,93.91
2023-02-13T18:39:36.278Z,94.09
2023-02-13T18:42:04.645Z,94.12
2023-02-13T18:44:32.132Z,93.65
2023-02-13T18:46:59.917Z,93.74
2023-02-13T18:49:27.624Z,93.47
2023-02-13T18:51:55.563Z,93.31
2023-02-13T18:54:24.734Z,92.78
2023-02-13T18:56:52.243Z,92.33
2023-02-13T18:59:19.777Z,92.34
2023-02-13T19:01:47.911Z,92.75
2023-02-13T19:04:16.031Z,93.31
2023-02-13T19:06:44.333Z,93.11
2023-02-13T19:09:11.955Z,94.07
2023-02-13T19:11:40.901Z,93.12
2023-02-13T19:14:08.894Z,92.95
2023-02-13T19:16:36.953Z,91.85
2023-02-13T19:19:07.519Z,91.79
2023-02-13T19:21:37.666Z,92.61
2023-02-13T19:24:06.616Z,92.16
2023-02-13T19:26:34.388Z,92.81
2023-02-13T19:29:03.841Z,92.83
2023-02-13T19:31:33.489Z,92.92
2023-02-13T19:34:01.645Z,93.12
2023-02-13T19:36:30.258Z,92.76
2023-02-13T19:38:59.440Z,92.64
2023-02-13T19:41:27.232Z,93.15
2023-02-13T19:43:54.924Z,93.06
2023-02-13T19:46:25.773Z,93.40
2023-02-13T19:48:53.742Z,92.88
2023-02-13T19:51:25.299Z,92.50
2023-02-13T19:53:56.800Z,92.19
2023-02-13T19:56:24.787Z,91.73
2023-02-13T19:58:52.559Z,91.38
2023-02-13T20:01:22.570Z,91.93
2023-02-13T20:03:51.780Z,91.87
2023-02-13T20:06:21.447Z,92.24
2023-02-13T20:08:49.405Z,92.47
2023-02-13T20:11:18.433Z,92.10
2023-02-13T20:13:46.116Z,92.36
2023-02-13T20:16:15.470Z,92.39
2023-02-13T20:18:43.550Z,92.28
2023-02-13T20:21:14.724Z,92.17
2023-02-13T20:23:42.766Z,91.65
2023-02-13T20:26:13.673Z,92.14
2023-02-13T20:28:42.095Z,91.53
2023-02-13T20:31:11.594Z,91.55
2023-02-13T20:33:39.584Z,91.69
2023-02-13T20:36:12.871Z,91.38
2023-02-13T20:38:40.585Z,91.62
2023-02-13T20:41:09.333Z,91.31
2023-02-13T20:43:37.288Z,91.47
2023-02-13T20:46:05.053Z,91.11
2023-02-13T20:48:32.845Z,91.50
2023-02-13T20:51:01.049Z,91.72
2023-02-13T20:53:30.691Z,91.00
2023-02-13T20:56:03.405Z,91.15
2023-02-13T20:58:32.004Z,91.81
2023-02-13T21:01:00.225Z,91.69
2023-02-13T21:03:28.271Z,91.63
2023-02-13T21:05:55.870Z,91.34
2023-02-13T21:08:23.441Z,91.93
2023-02-13T21:10:52.272Z,91.34
2023-02-13T21:13:19.745Z,91.51
2023-02-13T21:15:50.564Z,92.04
2023-02-13T21:18:20.353Z,91.66
2023-02-13T21:20:50.339Z,91.67
2023-02-13T21:23:17.988Z,91.06
2023-02-13T21:25:45.606Z,90.82
2023-02-13T21:28:14.551Z,90.77
2023-02-13T21:31:02.501Z,90.43
2023-02-13T21:33:30.383Z,90.98
2023-02-13T22:00:11.973Z,91.43
2023-02-13T22:02:40.920Z,91.19
2023-02-13T22:05:12.205Z,90.86
2023-02-13T22:10:24.418Z,91.33
2023-02-13T22:13:19.148Z,91.53
2023-02-13T22:18:52.196Z,91.32
2023-02-13T22:21:39.427Z,90.93
2023-02-13T22:24:12.036Z,90.55
2023-02-13T22:32:06.801Z,91.06
2023-02-13T22:34:35.234Z,91.07
2023-02-13T22:37:03.957Z,91.00
2023-02-13T22:42:28.297Z,91.02
2023-02-13T22:47:44.701Z,91.03
2023-02-13T22:50:29.190Z,90.98
2023-02-13T22:52:59.156Z,91.08
2023-02-13T22:55:28.224Z,90.84
2023-02-13T23:15:00.678Z,90.90
2023-02-13T23:20:29.912Z,91.12
2023-02-13T23:22:59.757Z,90.62
2023-02-13T23:25:27.335Z,90.96
2023-02-13T23:27:57.013Z,90.68
2023-02-13T23:30:25.292Z,90.32
2023-02-13T23:32:52.950Z,90.84
2023-02-13T23:35:20.555Z,90.93
2023-02-13T23:37:48.105Z,90.73
2023-02-13T23:40:17.983Z,90.70
2023-02-13T23:42:45.689Z,90.68
2023-02-13T23:45:13.946Z,90.78
2023-02-13T23:47:41.566Z,90.77
2023-02-13T23:50:09.676Z,91.15
2023-02-13T23:52:37.428Z,90.75
2023-02-13T23:55:05.289Z,90.94
2023-02-13T23:57:34.127Z,90.94
